Time;durP1;ratioP1;P1;durP2;ratioP2;P2;SDS_P1;SDS_P2;PMS_P1;PMS_P2;Temp;Humidity;BMP_temperature;BMP_pressure;BME280_temperature;BME280_humidity;BME280_pressure;Samples;Min_cycle;Max_cycle;Signal;HPM_P1;HPM_P2
2022/08/14 00:01:41;;;;;;;9.20;6.22;;;;;;;22.92;48.53;100923.22;6212258;23;20016;-67
2022/08/14 00:04:06;;;;;;;6.68;6.00;;;;;;;22.89;48.08;100929.31;6215831;23;20016;-67
2022/08/14 00:06:31;;;;;;;9.27;6.20;;;;;;;22.88;48.15;100927.69;6215847;23;20000;-67
2022/08/14 00:08:57;;;;;;;10.35;6.82;;;;;;;22.83;48.14;100915.63;6215754;23;20001;-67
2022/08/14 00:11:22;;;;;;;9.23;6.30;;;;;;;22.83;47.90;100917.59;6216243;23;20362;-67
2022/08/14 00:13:47;;;;;;;8.35;6.53;;;;;;;22.80;48.14;100904.41;6189153;23;20087;-67
2022/08/14 00:16:13;;;;;;;11.38;6.60;;;;;;;22.72;47.95;100907.88;6216056;23;20044;-68
2022/08/14 00:18:39;;;;;;;7.68;6.95;;;;;;;22.70;48.45;100905.41;6215518;23;20007;-67
2022/08/14 00:21:05;;;;;;;9.40;6.53;;;;;;;22.68;48.53;100907.66;6215583;23;20369;-67
2022/08/14 00:23:30;;;;;;;11.02;6.57;;;;;;;22.58;48.72;100896.84;6215654;23;20001;-66
2022/08/14 00:25:56;;;;;;;11.33;6.50;;;;;;;22.64;48.61;100907.44;6215822;23;20080;-67
2022/08/14 00:28:25;;;;;;;10.35;6.90;;;;;;;22.63;48.55;100902.22;6189582;23;20239;-67
2022/08/14 00:30:56;;;;;;;12.60;6.53;;;;;;;22.63;48.71;100893.97;6216007;23;20012;-67
2022/08/14 00:33:23;;;;;;;9.00;6.10;;;;;;;22.59;48.65;100892.97;6215756;23;20464;-67
2022/08/14 00:35:49;;;;;;;9.85;6.43;;;;;;;22.55;48.79;100889.16;6216091;23;20012;-67
2022/08/14 00:38:16;;;;;;;9.30;6.22;;;;;;;22.52;49.06;100885.06;6215558;23;20000;-67
2022/08/14 00:40:42;;;;;;;9.80;6.28;;;;;;;22.41;49.20;100884.44;6215671;23;20007;-67
2022/08/14 00:43:08;;;;;;;9.20;6.40;;;;;;;22.42;49.25;100877.81;6215222;23;20028;-67
2022/08/14 00:45:34;;;;;;;8.88;6.50;;;;;;;22.42;49.07;100883.34;6216029;23;20044;-67
2022/08/14 00:48:00;;;;;;;10.18;6.68;;;;;;;22.39;49.38;100872.09;6215571;23;20009;-66
2022/08/14 00:50:29;;;;;;;10.50;6.80;;;;;;;22.31;49.82;100876.38;6214963;23;20017;-67
2022/08/14 00:52:56;;;;;;;11.18;7.32;;;;;;;22.25;49.74;100869.28;6215761;23;20078;-67
2022/08/14 00:55:23;;;;;;;12.45;6.72;;;;;;;22.25;49.50;100869.28;6215265;23;20012;-66
2022/08/14 01:00:33;;;;;;;8.00;6.65;;;;;;;22.11;49.82;100856.28;6212304;23;20090;-66
2022/08/14 01:03:00;;;;;;;12.13;6.65;;;;;;;22.15;49.69;100855.69;6214158;23;20017;-67
2022/08/14 01:05:28;;;;;;;10.75;6.70;;;;;;;22.11;50.12;100856.28;6215315;23;20048;-67
2022/08/14 01:07:56;;;;;;;8.82;6.45;;;;;;;22.06;49.92;100850.06;6215467;23;20054;-68
2022/08/14 01:10:49;;;;;;;12.23;6.82;;;;;;;22.03;50.30;100847.91;6215315;23;20005;-68
2022/08/14 01:13:09;;;;;;;10.50;6.85;;;;;;;22.02;50.17;100841.56;6214440;23;20430;-68
2022/08/14 01:15:34;;;;;;;9.63;6.68;;;;;;;21.98;50.52;100837.78;6215359;23;20000;-68
2022/08/14 01:21:03;;;;;;;12.50;7.22;;;;;;;21.88;50.67;100843.50;6214491;23;20022;-68
2022/08/14 01:23:30;;;;;;;9.23;6.90;;;;;;;21.75;50.98;100834.84;6215615;23;20001;-66
2022/08/14 01:25:57;;;;;;;10.52;6.88;;;;;;;21.81;50.99;100835.59;6215587;23;20009;-66
2022/08/14 01:28:25;;;;;;;11.32;6.57;;;;;;;21.75;51.06;100834.84;6215610;23;20012;-68
2022/08/14 01:30:54;;;;;;;13.23;6.82;;;;;;;21.76;51.21;100833.75;6211580;23;20005;-67
2022/08/14 01:33:27;;;;;;;9.23;6.70;;;;;;;21.75;51.09;100836.81;6214311;23;20109;-67
2022/08/14 01:35:55;;;;;;;8.07;6.50;;;;;;;21.74;51.42;100832.41;6215534;23;20011;-67
2022/08/14 01:38:21;;;;;;;7.38;6.65;;;;;;;21.60;52.07;100835.13;6215179;23;20007;-66
2022/08/14 01:40:46;;;;;;;11.48;6.72;;;;;;;21.58;52.26;100837.34;6214523;23;20011;-68
2022/08/14 01:43:14;;;;;;;10.07;6.88;;;;;;;21.47;52.68;100844.94;6213835;23;20028;-68
2022/08/14 01:45:40;;;;;;;9.90;6.70;;;;;;;21.47;52.43;100844.09;6215442;23;20483;-68
2022/08/14 01:48:05;;;;;;;14.07;6.65;;;;;;;21.39;52.62;100843.69;6214981;23;20024;-66
2022/08/14 01:50:31;;;;;;;7.03;6.40;;;;;;;21.34;52.99;100843.72;6214123;23;20080;-68
2022/08/14 01:52:56;;;;;;;11.45;6.32;;;;;;;21.22;53.67;100846.13;6215377;23;20441;-68
2022/08/14 01:55:29;;;;;;;9.07;6.53;;;;;;;21.20;53.68;100842.84;6215071;23;20084;-66
2022/08/14 01:57:54;;;;;;;7.22;6.30;;;;;;;21.12;53.99;100835.25;6215413;23;20012;-68
2022/08/14 02:00:20;;;;;;;10.25;6.35;;;;;;;21.12;53.88;100838.84;6213939;23;20008;-68
2022/08/14 02:02:45;;;;;;;10.10;6.25;;;;;;;21.06;54.29;100835.34;6211402;23;20509;-67
2022/08/14 02:05:12;;;;;;;9.85;6.28;;;;;;;21.06;53.89;100827.06;6214396;23;20087;-68
2022/08/14 02:07:38;;;;;;;10.20;6.50;;;;;;;21.09;54.10;100824.84;6215103;23;20032;-68
2022/08/14 02:10:05;;;;;;;7.07;6.00;;;;;;;21.01;54.71;100824.38;6213972;23;20001;-65
2022/08/14 02:12:31;;;;;;;10.65;6.35;;;;;;;20.89;54.92;100827.59;6215056;23;20410;-68
2022/08/14 02:14:56;;;;;;;6.43;5.93;;;;;;;20.89;55.04;100833.09;6215127;23;20009;-68
2022/08/14 02:17:22;;;;;;;9.55;6.47;;;;;;;20.77;55.22;100818.13;6214867;23;20031;-68
2022/08/14 02:19:48;;;;;;;7.18;6.18;;;;;;;20.74;55.46;100822.25;6214606;23;20004;-69
2022/08/14 02:22:17;;;;;;;10.48;6.22;;;;;;;20.69;55.59;100816.84;6214411;23;20010;-66
2022/08/14 02:24:43;;;;;;;11.45;6.40;;;;;;;20.69;55.86;100817.66;6215088;23;20012;-68
2022/08/14 02:27:12;;;;;;;10.63;6.45;;;;;;;20.59;55.87;100814.97;6214348;23;20001;-67
2022/08/14 02:29:39;;;;;;;9.93;6.43;;;;;;;20.56;56.18;100823.00;6214483;23;20009;-68
2022/08/14 02:32:05;;;;;;;9.75;6.40;;;;;;;20.59;55.85;100831.47;6214237;23;20008;-69
2022/08/14 02:34:33;;;;;;;6.68;6.03;;;;;;;20.53;56.80;100819.75;6214926;23;20011;-66
2022/08/14 02:37:01;;;;;;;9.48;7.18;;;;;;;20.47;56.85;100820.09;6214988;23;20078;-67
2022/08/14 02:39:29;;;;;;;13.38;6.60;;;;;;;20.40;56.42;100812.19;6214376;23;20015;-68
2022/08/14 02:41:56;;;;;;;6.70;6.00;;;;;;;20.34;56.58;100813.38;6214173;23;20032;-66
2022/08/14 02:44:22;;;;;;;7.90;6.55;;;;;;;20.42;56.82;100809.97;6187598;23;20739;-67
2022/08/14 02:46:48;;;;;;;11.13;6.53;;;;;;;20.37;57.25;100804.53;6214470;23;20007;-66
2022/08/14 02:49:14;;;;;;;7.95;6.20;;;;;;;20.31;57.25;100809.28;6214290;23;20354;-67
2022/08/14 02:51:40;;;;;;;10.10;6.28;;;;;;;20.22;57.84;100808.28;6213668;23;20007;-67
2022/08/14 02:54:08;;;;;;;8.60;6.40;;;;;;;20.18;58.10;100812.69;6187431;23;20087;-70
2022/08/14 02:56:37;;;;;;;15.45;7.68;;;;;;;20.22;57.39;100819.25;6214576;23;20482;-70
2022/08/14 02:59:03;;;;;;;11.43;8.00;;;;;;;20.27;56.78;100815.63;6214912;23;20019;-70
2022/08/14 03:01:28;;;;;;;13.93;7.72;;;;;;;20.25;56.28;100802.19;6207935;23;20013;-70
2022/08/14 03:03:56;;;;;;;11.65;7.90;;;;;;;20.25;56.40;100806.88;6187545;23;20402;-70
2022/08/14 03:06:25;;;;;;;17.05;7.85;;;;;;;20.23;56.67;100798.94;6214513;23;20012;-69
2022/08/14 03:08:52;;;;;;;10.18;7.20;;;;;;;20.26;55.67;100795.59;6214785;23;20509;-68
2022/08/14 03:11:18;;;;;;;10.93;6.88;;;;;;;20.32;55.46;100791.69;6212827;23;20545;-70
2022/08/14 03:13:50;;;;;;;10.73;6.82;;;;;;;20.33;55.32;100793.28;6214444;23;20015;-69
2022/08/14 03:16:18;;;;;;;10.57;6.80;;;;;;;20.36;55.25;100783.66;6214509;23;20005;-70
2022/08/14 03:18:45;;;;;;;9.60;7.25;;;;;;;20.36;54.64;100792.72;6214578;23;20573;-70
2022/08/14 03:21:17;;;;;;;7.75;6.60;;;;;;;20.32;55.19;100791.69;6213159;23;20437;-70
2022/08/14 03:23:46;;;;;;;9.38;6.93;;;;;;;20.34;55.25;100788.63;6214552;23;20479;-70
2022/08/14 03:26:14;;;;;;;7.32;6.63;;;;;;;20.35;55.57;100796.59;6214397;23;20387;-70
2022/08/14 03:28:41;;;;;;;9.55;6.97;;;;;;;20.34;55.05;100797.69;6214750;23;20403;-69
2022/08/14 03:31:07;;;;;;;11.48;6.85;;;;;;;20.36;55.16;100789.16;6213523;23;20008;-69
2022/08/14 03:33:35;;;;;;;14.13;7.38;;;;;;;20.33;55.30;100787.00;6214267;23;20028;-69
2022/08/14 03:36:02;;;;;;;9.38;6.93;;;;;;;20.30;55.21;100784.84;6214688;23;20005;-70
2022/08/14 03:38:29;;;;;;;9.55;6.68;;;;;;;20.30;55.11;100777.41;6214432;23;20039;-69
2022/08/14 03:40:54;;;;;;;9.73;6.85;;;;;;;20.24;55.61;100770.31;6213640;23;20008;-68
2022/08/14 03:43:19;;;;;;;11.93;6.78;;;;;;;20.26;55.09;100776.38;6214051;23;19997;-70
2022/08/14 03:45:45;;;;;;;11.07;6.80;;;;;;;20.23;54.72;100771.44;6214617;23;20028;-70
2022/08/14 03:48:18;;;;;;;9.43;6.50;;;;;;;20.22;54.95;100782.75;6214262;23;20004;-70
2022/08/14 03:50:46;;;;;;;8.82;6.47;;;;;;;20.17;55.63;100783.63;6213745;23;20016;-69
2022/08/14 03:53:12;;;;;;;10.05;6.82;;;;;;;20.08;55.93;100777.09;6214935;23;20000;-69
2022/08/14 03:55:39;;;;;;;11.48;6.68;;;;;;;20.04;56.68;100779.63;6216417;23;20005;-69
2022/08/14 03:58:08;;;;;;;11.75;6.97;;;;;;;19.97;56.95;100784.63;6216531;23;20004;-70
2022/08/14 04:00:35;;;;;;;8.25;6.32;;;;;;;19.96;56.57;100783.81;6212448;23;20011;-69
2022/08/14 04:03:03;;;;;;;14.88;7.07;;;;;;;19.93;56.95;100780.81;6214888;23;20458;-70
2022/08/14 04:05:28;;;;;;;12.90;7.47;;;;;;;19.95;56.55;100779.41;6216169;23;20310;-71
2022/08/14 04:07:53;;;;;;;9.77;7.18;;;;;;;19.95;55.97;100773.94;6216309;23;20001;-70
2022/08/14 04:10:19;;;;;;;13.80;7.25;;;;;;;19.95;56.29;100782.16;6214749;23;20033;-70
2022/08/14 04:12:44;;;;;;;11.50;7.68;;;;;;;19.82;56.34;100771.84;6216307;23;20008;-70
2022/08/14 04:15:10;;;;;;;8.40;7.00;;;;;;;19.82;56.91;100766.38;6216008;23;20015;-70
2022/08/14 04:17:36;;;;;;;11.52;7.97;;;;;;;19.75;57.00;100771.38;6216251;23;20066;-70
2022/08/14 04:20:03;;;;;;;10.43;7.65;;;;;;;19.71;57.32;100767.56;6214814;23;20430;-68
2022/08/14 04:22:30;;;;;;;9.43;7.53;;;;;;;19.69;57.38;100761.50;6215963;23;20004;-70
2022/08/14 04:24:56;;;;;;;11.68;8.20;;;;;;;19.70;57.43;100765.91;6216330;23;20008;-70
2022/08/14 04:27:22;;;;;;;8.95;8.05;;;;;;;19.68;57.58;100759.91;6215982;23;20008;-70
2022/08/14 04:29:47;;;;;;;9.43;8.27;;;;;;;19.71;57.42;100757.38;6215709;23;20005;-70
2022/08/14 04:32:14;;;;;;;15.25;8.65;;;;;;;19.64;57.51;100760.47;6215446;23;20040;-69
2022/08/14 04:34:40;;;;;;;15.63;9.07;;;;;;;19.60;57.64;100758.59;6216150;23;20020;-71
2022/08/14 04:45:22;;;;;;;9.50;7.97;;;;;;;19.55;57.59;100740.25;6215467;23;20070;-68
2022/08/14 04:50:34;;;;;;;14.57;8.27;;;;;;;19.48;58.29;100746.06;6214921;23;20511;-69
2022/08/14 04:52:59;;;;;;;9.32;8.40;;;;;;;19.45;58.40;100740.34;6216082;23;20413;-69
2022/08/14 04:55:25;;;;;;;10.85;7.75;;;;;;;19.54;58.40;100737.78;6215703;23;20040;-70
2022/08/14 04:57:51;;;;;;;13.20;7.80;;;;;;;19.54;58.39;100732.31;6215942;23;20062;-71
2022/08/14 05:00:16;;;;;;;11.90;8.48;;;;;;;19.58;58.03;100736.09;6214544;23;20012;-68
2022/08/14 05:02:41;;;;;;;12.98;8.18;;;;;;;19.59;58.25;100730.31;6211027;23;20020;-69
2022/08/14 05:05:07;;;;;;;13.27;8.00;;;;;;;19.65;58.15;100729.16;6215207;23;20020;-69
2022/08/14 05:07:33;;;;;;;12.18;7.68;;;;;;;19.59;58.44;100724.00;6215482;23;20365;-69
2022/08/14 05:09:58;;;;;;;10.85;7.45;;;;;;;19.62;58.78;100734.41;6214728;23;20031;-69
2022/08/14 05:12:23;;;;;;;11.70;7.63;;;;;;;19.64;58.40;100726.69;6215262;23;20011;-70
2022/08/14 05:14:49;;;;;;;8.68;7.63;;;;;;;19.65;58.25;100729.16;6215778;23;20342;-70
2022/08/14 05:17:14;;;;;;;12.50;7.30;;;;;;;19.72;58.39;100730.75;6215452;23;20326;-69
2022/08/14 05:19:40;;;;;;;13.30;7.03;;;;;;;19.65;58.30;100729.16;6215169;23;20005;-70
2022/08/14 05:22:06;;;;;;;8.90;7.50;;;;;;;19.71;58.42;100726.38;6214720;23;20008;-69
2022/08/14 05:24:31;;;;;;;12.57;7.45;;;;;;;19.77;58.83;100731.53;6215418;23;20020;-69
2022/08/14 05:26:58;;;;;;;10.55;7.75;;;;;;;19.77;58.51;100731.53;6215503;23;20005;-70
2022/08/14 05:29:25;;;;;;;10.25;7.35;;;;;;;19.82;58.63;100738.91;6214875;23;20012;-70
2022/08/14 05:31:50;;;;;;;9.00;7.68;;;;;;;19.86;58.60;100739.16;6188455;23;20095;-69
2022/08/14 05:34:15;;;;;;;12.63;7.97;;;;;;;19.94;58.37;100731.13;6215218;23;20047;-70
2022/08/14 05:36:41;;;;;;;9.65;7.50;;;;;;;19.95;58.98;100737.41;6215505;23;20012;-69
2022/08/14 05:39:06;;;;;;;10.65;8.13;;;;;;;19.95;58.33;100738.22;6187761;23;20369;-69
2022/08/14 05:41:33;;;;;;;11.57;8.25;;;;;;;20.00;58.67;100734.59;6215190;23;20015;-71
2022/08/14 05:43:59;;;;;;;13.75;8.27;;;;;;;20.00;58.51;100735.44;6188719;23;20009;-69
2022/08/14 05:46:24;;;;;;;9.88;8.07;;;;;;;20.04;58.83;100727.44;6214799;23;20036;-70
2022/08/14 05:48:53;;;;;;;13.57;7.63;;;;;;;20.12;58.49;100728.72;6214521;23;20462;-71
2022/08/14 05:51:19;;;;;;;11.85;7.72;;;;;;;20.18;58.75;100720.13;6215101;23;20406;-69
2022/08/14 05:53:44;;;;;;;13.05;8.30;;;;;;;20.23;58.95;100712.91;6214973;23;20008;-70
2022/08/14 05:56:10;;;;;;;8.32;7.45;;;;;;;20.35;58.56;100714.16;6188636;23;20087;-70
2022/08/14 05:58:35;;;;;;;9.82;7.40;;;;;;;20.35;58.63;100718.81;6187284;23;20004;-71
2022/08/14 06:01:01;;;;;;;10.73;7.30;;;;;;;20.42;58.73;100716.53;6183871;23;20011;-70
2022/08/14 06:03:27;;;;;;;10.27;7.75;;;;;;;20.45;58.92;100723.38;6214736;23;20311;-70
2022/08/14 06:05:54;;;;;;;9.10;6.95;;;;;;;20.56;58.83;100726.78;6215310;23;20425;-70
2022/08/14 06:08:27;;;;;;;11.10;7.13;;;;;;;20.61;58.65;100722.06;6213976;23;20031;-70
2022/08/14 06:11:01;;;;;;;11.65;7.43;;;;;;;20.70;58.09;100720.31;6214279;23;20482;-70
2022/08/14 06:13:28;;;;;;;9.75;6.88;;;;;;;20.77;58.28;100730.94;6214848;23;20050;-71
2022/08/14 06:15:53;;;;;;;10.95;7.57;;;;;;;20.86;58.31;100722.84;6215216;23;20051;-69
2022/08/14 06:18:19;;;;;;;13.10;7.15;;;;;;;20.93;57.97;100714.22;6213964;23;20008;-70
2022/08/14 06:20:44;;;;;;;9.68;6.72;;;;;;;20.97;58.32;100713.31;6215003;23;20079;-72
2022/08/14 06:23:09;;;;;;;11.77;6.53;;;;;;;21.01;57.80;100708.84;6215154;23;20004;-71
2022/08/14 06:25:35;;;;;;;12.65;6.97;;;;;;;21.11;57.54;100716.13;6214287;23;20445;-71
2022/08/14 06:28:01;;;;;;;10.73;6.60;;;;;;;21.12;58.04;100712.28;6214528;23;20055;-68
2022/08/14 06:30:28;;;;;;;9.07;6.53;;;;;;;21.20;57.32;100710.78;6214776;23;20000;-69
2022/08/14 06:32:54;;;;;;;13.10;6.90;;;;;;;21.24;57.55;100703.53;6188392;23;20335;-68
2022/08/14 06:35:21;;;;;;;13.52;6.40;;;;;;;21.30;57.58;100705.06;6214405;23;20087;-70
2022/08/14 06:37:55;;;;;;;9.15;6.97;;;;;;;21.35;57.60;100709.69;6214940;23;20369;-71
2022/08/14 06:40:32;;;;;;;7.20;6.20;;;;;;;21.41;56.85;100705.75;6214307;23;20005;-69
2022/08/14 06:43:04;;;;;;;10.10;6.35;;;;;;;21.49;56.61;100709.72;6215150;23;20017;-70
2022/08/14 06:45:30;;;;;;;12.20;6.25;;;;;;;21.59;56.63;100701.34;6214212;23;20371;-71
2022/08/14 06:47:56;;;;;;;10.93;6.50;;;;;;;21.65;56.88;100696.53;6214817;23;20000;-69
2022/08/14 06:51:04;;;;;;;8.60;6.15;;;;;;;21.74;56.40;100698.28;6213703;23;20008;-70
2022/08/14 06:53:29;;;;;;;8.55;6.28;;;;;;;21.81;56.72;100706.13;6214266;23;20005;-70
2022/08/14 06:55:56;;;;;;;11.85;6.57;;;;;;;21.84;55.92;100711.03;6213839;23;20011;-68
2022/08/14 06:58:21;;;;;;;10.00;6.03;;;;;;;21.91;56.36;100702.38;6213943;23;20368;-68
2022/08/14 07:06:16;;;;;;;9.38;5.82;;;;;;;22.07;54.60;100695.47;6213859;23;20047;-67
2022/08/14 07:08:42;;;;;;;8.00;5.88;;;;;;;22.19;55.27;100691.34;6213214;23;20008;-69
2022/08/14 07:11:08;;;;;;;6.47;5.45;;;;;;;22.21;55.18;100689.09;6214412;23;20009;-69
2022/08/14 07:13:33;;;;;;;11.13;6.00;;;;;;;22.30;54.06;100688.06;6213853;23;20008;-69
2022/08/14 07:15:59;;;;;;;7.80;5.85;;;;;;;22.37;54.15;100690.44;6213438;23;20001;-70
2022/08/14 07:18:26;;;;;;;9.90;5.57;;;;;;;22.41;54.50;100688.69;6213162;23;20422;-71
2022/08/14 07:20:53;;;;;;;6.35;5.68;;;;;;;22.48;53.72;100685.53;6213874;23;20084;-72
2022/08/14 07:23:22;;;;;;;7.82;5.93;;;;;;;22.55;52.87;100696.13;6213994;23;20007;-69
2022/08/14 07:25:49;;;;;;;8.25;5.35;;;;;;;22.61;53.06;100692.13;6214507;23;20430;-73
2022/08/14 07:28:16;;;;;;;6.07;5.10;;;;;;;22.70;53.87;100695.78;6214029;23;20418;-69
2022/08/14 07:30:43;;;;;;;6.10;5.50;;;;;;;22.78;53.36;100703.34;6214808;23;20012;-68
2022/08/14 07:33:09;;;;;;;11.32;5.10;;;;;;;22.83;52.75;100694.13;6215975;23;20034;-71
2022/08/14 07:35:36;;;;;;;6.25;5.35;;;;;;;22.85;52.58;100691.06;6215759;23;20039;-69
2022/08/14 07:41:45;;;;;;;;;;;;;;;23.02;52.25;100688.41;6214632;23;20023;-70
2022/08/14 07:44:32;;;;;;;6.10;4.90;;;;;;;23.11;52.17;100689.31;6216334;23;20192;-72
2022/08/14 07:56:44;;;;;;;7.45;4.75;;;;;;;23.48;51.34;100690.06;6213612;23;20024;-70
2022/08/14 07:59:10;;;;;;;6.55;4.78;;;;;;;23.53;51.14;100678.84;6215150;23;20000;-69
2022/08/14 08:01:35;;;;;;;5.47;4.72;;;;;;;23.61;50.89;100684.75;6211400;23;20326;-70
2022/08/14 08:04:03;;;;;;;9.68;4.80;;;;;;;23.66;51.28;100687.41;6215562;23;20001;-69
2022/08/14 08:06:28;;;;;;;8.57;4.78;;;;;;;23.71;50.24;100688.06;6215698;23;20417;-69
2022/08/14 08:08:57;;;;;;;8.73;4.70;;;;;;;23.76;49.34;100692.63;6215182;23;20088;-69
2022/08/14 08:11:26;;;;;;;6.40;4.93;;;;;;;23.84;49.81;100691.84;6214147;23;20015;-71
2022/08/14 08:13:54;;;;;;;6.57;4.60;;;;;;;23.86;49.86;100686.84;6215819;23;20011;-68
2022/08/14 08:17:06;;;;;;;7.78;4.60;;;;;;;24.04;49.78;100693.25;6215673;23;20043;-71
2022/08/14 08:19:37;;;;;;;5.88;4.75;;;;;;;24.12;48.65;100674.25;6215380;23;20020;-69
2022/08/14 08:22:05;;;;;;;8.70;4.47;;;;;;;24.14;47.99;100677.50;6189220;23;20011;-70
2022/08/14 08:24:34;;;;;;;7.57;4.60;;;;;;;24.19;48.50;100667.13;6187646;23;20322;-69
2022/08/14 08:27:01;;;;;;;7.38;4.55;;;;;;;24.26;48.44;100665.81;6189231;23;20396;-70
2022/08/14 08:29:26;;;;;;;5.93;4.90;;;;;;;24.28;47.97;100660.78;6214700;23;20414;-69
2022/08/14 08:31:51;;;;;;;9.15;4.57;;;;;;;24.37;47.95;100661.63;6189259;23;20008;-69
2022/08/14 08:34:18;;;;;;;9.55;4.65;;;;;;;24.39;48.02;100653.81;6187699;23;19996;-70
2022/08/14 08:36:44;;;;;;;7.07;4.90;;;;;;;24.40;47.22;100667.31;6215927;23;20230;-71
2022/08/14 08:39:11;;;;;;;8.57;5.05;;;;;;;24.53;47.75;100668.31;6214900;23;20027;-70
2022/08/14 08:41:39;;;;;;;6.80;4.57;;;;;;;24.59;46.95;100674.53;6215333;23;20008;-71
2022/08/14 08:44:04;;;;;;;8.45;4.60;;;;;;;24.67;47.01;100668.19;6214496;23;20001;-71
2022/08/14 08:46:29;;;;;;;6.20;4.22;;;;;;;24.76;47.09;100674.53;6215640;23;20015;-70
2022/08/14 08:48:56;;;;;;;6.43;4.68;;;;;;;24.81;46.75;100670.00;6189364;23;20365;-72
2022/08/14 08:51:30;;;;;;;8.52;4.70;;;;;;;24.85;46.77;100674.53;6215225;23;20030;-70
2022/08/14 08:53:57;;;;;;;7.00;4.40;;;;;;;24.88;45.42;100665.59;6214143;23;20000;-70
2022/08/14 08:56:35;;;;;;;8.60;4.70;;;;;;;25.01;46.38;100655.47;6215639;23;20058;-71
2022/08/14 08:59:01;;;;;;;6.65;4.15;;;;;;;25.16;45.85;100656.91;6215039;23;20338;-69
2022/08/14 09:01:29;;;;;;;5.25;4.55;;;;;;;25.21;45.04;100656.75;6211412;23;20051;-71
2022/08/14 09:04:04;;;;;;;9.20;4.78;;;;;;;25.28;45.53;100661.78;6214105;23;20016;-70
2022/08/14 09:06:30;;;;;;;4.95;4.00;;;;;;;25.44;44.83;100657.38;6215476;23;20088;-70
2022/08/14 09:08:55;;;;;;;7.53;4.25;;;;;;;25.52;43.82;100654.91;6215513;23;20504;-69
2022/08/14 09:11:22;;;;;;;9.55;4.10;;;;;;;25.53;43.45;100640.72;6216178;23;20012;-69
2022/08/14 09:13:52;;;;;;;4.32;3.90;;;;;;;25.62;43.14;100644.28;6214270;23;20005;-68
2022/08/14 09:16:22;;;;;;;6.47;4.05;;;;;;;25.68;42.46;100638.53;6215701;23;20035;-70
2022/08/14 09:18:47;;;;;;;4.88;4.32;;;;;;;25.72;41.90;100636.72;6188829;23;20055;-69
2022/08/14 09:21:13;;;;;;;6.78;3.65;;;;;;;25.75;42.14;100636.06;6215697;23;20388;-69
2022/08/14 09:23:40;;;;;;;6.45;3.97;;;;;;;25.77;41.55;100636.53;6213024;23;20012;-68
2022/08/14 09:26:05;;;;;;;5.43;3.75;;;;;;;25.86;42.65;100626.19;6215650;23;20043;-70
2022/08/14 09:28:30;;;;;;;3.60;3.30;;;;;;;25.92;41.67;100624.06;6213425;23;20004;-69
2022/08/14 09:30:58;;;;;;;6.20;3.45;;;;;;;26.02;40.26;100631.22;6214423;23;20418;-68
2022/08/14 09:33:51;;;;;;;4.25;3.38;;;;;;;26.17;40.44;100636.19;6214940;23;20009;-69
2022/08/14 09:36:33;;;;;;;6.00;3.50;;;;;;;26.28;43.09;100631.84;6215116;23;20454;-68
2022/08/14 09:39:29;;;;;;;4.88;4.22;;;;;;;26.34;42.83;100627.75;6187927;23;20008;-71
2022/08/14 09:42:10;;;;;;;5.15;3.75;;;;;;;26.41;41.74;100621.66;6215084;23;20036;-71
2022/08/14 09:45:03;;;;;;;6.38;3.60;;;;;;;26.38;41.58;100618.75;6214702;23;20001;-69
2022/08/14 09:47:47;;;;;;;4.97;3.72;;;;;;;26.51;41.75;100609.31;6188284;23;20004;-71
2022/08/14 09:50:23;;;;;;;9.35;4.18;;;;;;;26.66;42.01;100611.53;6214822;23;20013;-70
2022/08/14 09:52:52;;;;;;;6.15;4.40;;;;;;;26.84;42.02;100605.78;6214610;23;20012;-70
2022/08/14 09:55:23;;;;;;;4.65;3.60;;;;;;;26.94;41.11;100605.38;6214584;23;20154;-70
2022/08/14 09:57:49;;;;;;;5.38;3.60;;;;;;;27.06;40.97;100599.03;6215075;23;20012;-69
2022/08/14 10:00:17;;;;;;;5.80;4.03;;;;;;;27.09;40.83;100600.34;6214840;23;20066;-69
2022/08/14 10:02:56;;;;;;;4.38;3.70;;;;;;;27.12;41.18;100596.88;6209400;23;20027;-69
2022/08/14 10:05:33;;;;;;;6.63;3.70;;;;;;;27.15;41.60;100601.72;6214180;23;20051;-70
2022/08/14 10:08:00;;;;;;;9.30;4.40;;;;;;;27.21;41.57;100589.25;6215089;23;20016;-71
2022/08/14 10:10:27;;;;;;;7.72;4.30;;;;;;;27.22;41.93;100585.28;6214214;23;20009;-70
2022/08/14 10:12:54;;;;;;;8.32;4.53;;;;;;;27.37;42.00;100590.22;6213503;23;20012;-69
2022/08/14 10:15:23;;;;;;;5.30;3.58;;;;;;;27.52;40.50;100577.63;6214061;23;20004;-69
2022/08/14 10:17:50;;;;;;;5.97;4.20;;;;;;;27.55;41.10;100576.09;6214834;23;20016;-71
2022/08/14 10:20:21;;;;;;;7.32;4.25;;;;;;;27.57;41.09;100579.34;6214316;23;20079;-70
2022/08/14 10:22:46;;;;;;;10.32;4.30;;;;;;;27.68;41.76;100568.56;6214687;23;20004;-69
2022/08/14 10:25:13;;;;;;;5.22;3.78;;;;;;;27.75;41.26;100572.38;6214216;23;20036;-70
2022/08/14 10:27:39;;;;;;;4.78;4.03;;;;;;;27.89;41.18;100571.22;6214376;23;20444;-71
2022/08/14 10:30:19;;;;;;;7.95;4.22;;;;;;;28.01;41.13;100567.63;6213258;23;20187;-71
2022/08/14 10:32:47;;;;;;;11.32;4.75;;;;;;;28.00;40.86;100566.81;6214589;23;20027;-71
2022/08/14 10:35:14;;;;;;;4.47;4.07;;;;;;;28.07;40.76;100557.91;6214607;23;20039;-70
2022/08/14 10:37:49;;;;;;;5.72;4.10;;;;;;;28.16;41.26;100557.72;6187872;23;20004;-70
2022/08/14 10:40:25;;;;;;;6.00;3.78;;;;;;;28.24;40.27;100554.00;6213937;23;20078;-72
2022/08/14 10:42:50;;;;;;;5.45;4.10;;;;;;;28.28;41.17;100546.59;6214114;23;20784;-71
2022/08/14 10:45:22;;;;;;;6.68;4.20;;;;;;;28.39;40.50;100542.13;6215274;23;20032;-69
2022/08/14 10:47:51;;;;;;;8.75;4.03;;;;;;;28.46;40.30;100539.56;6214573;23;20039;-68
2022/08/14 10:50:28;;;;;;;4.90;4.40;;;;;;;28.44;40.10;100529.94;6213212;23;20039;-68
2022/08/14 10:52:58;;;;;;;11.40;4.47;;;;;;;28.53;39.99;100543.69;6214408;23;20056;-69
2022/08/14 10:55:32;;;;;;;10.73;4.10;;;;;;;28.72;39.82;100535.50;6214903;23;20008;-69
2022/08/14 10:57:57;;;;;;;9.30;3.80;;;;;;;28.90;38.68;100538.78;6214204;23;20234;-71
2022/08/14 11:00:25;;;;;;;4.72;3.75;;;;;;;28.97;38.75;100532.56;6213877;23;20072;-69
2022/08/14 11:02:58;;;;;;;7.72;4.00;;;;;;;29.04;38.91;100532.75;6210936;23;20442;-68
2022/08/14 11:05:25;;;;;;;6.43;3.75;;;;;;;29.12;38.38;100523.44;6214277;23;20410;-69
2022/08/14 11:07:57;;;;;;;8.90;3.40;;;;;;;29.17;36.98;100533.50;6214485;23;20403;-68
2022/08/14 11:10:45;;;;;;;7.35;3.53;;;;;;;29.25;38.35;100540.09;6214809;23;20422;-69
2022/08/14 11:13:20;;;;;;;5.00;3.33;;;;;;;29.36;37.36;100541.13;6214270;23;20035;-70
2022/08/14 11:15:45;;;;;;;6.95;3.58;;;;;;;29.39;36.61;100529.25;6214121;23;20011;-68
2022/08/14 11:18:11;;;;;;;6.13;3.05;;;;;;;29.48;35.31;100521.50;6213395;23;20418;-69
2022/08/14 11:20:38;;;;;;;6.53;3.45;;;;;;;29.63;35.44;100527.44;6213199;23;20059;-70
2022/08/14 11:23:08;;;;;;;6.28;3.50;;;;;;;29.81;36.21;100523.09;6214760;23;20413;-70
2022/08/14 11:25:36;;;;;;;4.07;3.25;;;;;;;29.87;36.22;100518.06;6214497;23;20008;-70
2022/08/14 11:28:04;;;;;;;5.13;3.67;;;;;;;29.94;36.16;100522.97;6214066;23;20005;-71
2022/08/14 11:30:33;;;;;;;6.75;3.65;;;;;;;29.92;35.33;100522.53;6214615;23;20028;-73
2022/08/14 11:32:59;;;;;;;4.05;3.40;;;;;;;30.00;36.17;100532.66;6214008;23;20015;-69
2022/08/14 11:35:27;;;;;;;4.25;3.55;;;;;;;30.05;36.63;100529.59;6214310;23;20001;-69
2022/08/14 11:37:55;;;;;;;4.35;3.60;;;;;;;30.01;35.63;100526.75;6214449;23;20027;-68
2022/08/14 11:40:22;;;;;;;4.47;3.42;;;;;;;30.04;36.42;100512.06;6214518;23;20009;-68
2022/08/14 11:42:50;;;;;;;4.60;3.80;;;;;;;30.17;36.25;100515.50;6213856;23;20009;-69
2022/08/14 11:45:15;;;;;;;4.65;3.38;;;;;;;30.19;36.16;100498.38;6213684;23;20004;-69
2022/08/14 11:47:41;;;;;;;7.57;3.60;;;;;;;30.22;35.68;100495.66;6214129;23;20012;-68
2022/08/14 11:50:22;;;;;;;6.50;3.35;;;;;;;30.35;35.29;100498.31;6214431;23;20020;-69
2022/08/14 11:52:47;;;;;;;5.47;3.50;;;;;;;30.38;34.39;100492.00;6214371;23;20362;-68
2022/08/14 11:55:13;;;;;;;4.90;3.25;;;;;;;30.33;34.72;100489.47;6213760;23;20024;-69
2022/08/14 11:57:41;;;;;;;4.38;3.50;;;;;;;30.36;35.40;100477.56;6213322;23;20365;-68
2022/08/14 12:00:14;;;;;;;6.20;3.97;;;;;;;30.40;35.59;100482.06;6214590;23;20071;-69
2022/08/14 12:02:54;;;;;;;5.85;3.38;;;;;;;30.53;35.09;100471.56;6210294;23;20017;-67